Viernes, 19 de Septiembre del 2014

portal contactenos mapa del sitio buscar Revisar Correo Corporativo

|Reporte METAR por Reginal » ||Reporte TAF por Reginal » ||Reporte METAR, TAF y SIN覲TICO »

Reporte METAR por Regional

|| La Paz || Santa Cruz || Cochabamba || Beni - Pando ||

Informe METAR emitido cada hora.

Regional La Paz

ESTACIÓN

AEROPUERTO

HORA UTC

DESCRIPCIÓN

SLRY

Reyes

14-18S|67-21W

22:00

SLRY 182200Z 32003KT 8000 FEW020 SCT200 32/21 Q1008 A2978 FU HR53 RWY OPR 1 000M=

SLRQ

Rurrenabaque

14-25S|67-29W

22:00

SLRQ 182200Z 36008KT 9999 SCT020 BKN200 32/25 Q1006 A2973 HR61=

SLAP

Apolo

14-44S|68-24W

17:00

SLAPO 121700Z NIL=

SLSB

San Borja

14-51S|66-44W

23:00

SLSB 182300Z 00000KT 8000 FEW020 BKN200 30/24 Q1007 A2976 FU HR72 RWY NML=

SLLP

Internaci贸nal El Alto

16-08S|68-10W

07:00

SLLP 190700Z VRB02KT 9999 FEW004 SCT070 BKN200 03/02 Q1036 A3060 626.9 HR88 NOSIG=

SLCN

Chara帽a

17-35S|69-25W

-

Mensaje no Recibido

SLOR

Oruro

17-57S|67-04W

23:00

SLOR 182300Z 27008KT 6000 -TSRA SCT017 SCT020CB OVC070 05/04 Q1034 A3054 655.3 CB/TS/TOD DIR HR93=

SLUY

Uyuni

20-27S|62-52W

19:00

SLUY 181900Z 02015G25KT 9999 FEW012 FEW023CB BKN200 12/02 Q1031 A3046 656.6 CB/DIST/NW AS HR49=

Regional Cochabamba

ESTACIÓN

AEROPUERTO

HORA UTC

DESCRIPCIÓN

SLCB

Cochabamba

17-25S|66-10W

07:00

SLCB 190700Z 00000KT 9999 SCT027 BKN070 13/09 Q1024 A3024 750.7 HR76 FU NOSIG=

SLSU

Sucre

19-00S|65-17W

23:00

SLSU 182300Z 02011KT 9999 SCT020 16/05 Q1024 A3026 HR52 CI=

SLPO

Potos铆

19-32S|65-43W

21:00

SLPO 182100Z 24010KT 9999 SCT020 BKN200 12/M00 Q1033 A3050 HR49=

SLAG

Monteagudo

19-49S|63-58W

21:00

SLAG 182100Z 18010KT 9999 BKN070 29/18 Q1008 A2977 HR52 FU RWY CLSD==

SLVM

Villamontes

21-15S|63-24W

21:00

SLVM 182100Z 18018KT 4000 SA FEW027 FEW030CB SCT070 BKN200 32/ 16 Q1004 A2965 HR38 CB N/NE=

SLTJ

Tarija

21-33S|64-42W

23:00

SLTJ 182300Z 07004KT 9999 SCT080 BKN200 23/13 Q1013 A2992 HR53 FU=

SLYA

Yacuiba

21-57S|63-39W

23:00

SLYA 182300Z 18008KT 9999 SCT070 BKN200 21/18 Q1009 A2981 HR83 FU=

SLBJ

Bermejo

22-46S|64-18W

21:00

SLBJ 182100Z 18010KT 9999 SCT015 BKN200 27/20 Q1004 A2965 HR66 FU=

Regional Santa Cruz

ESTACIÓN

AEROPUERTO

HORA UTC

DESCRIPCIÓN

SLAS

Ascenci贸n de Guarayos

15-55S|63-09W

23:00

SLAS 182300Z 33005KT 8000 SCT020 BKN200 31/23 Q1008 A2977 HR65 FU RWY NML=

SLCP

Concepci贸n

16-08S|62-01W

22:00

SLCP 182200Z 00000KT 8000 NSC 31/21 Q1011 A2985 HR56 FU RWY NML =

SLJV

San Javier

16-16S|62-28W

22:00

SLJV 182200Z 36005KT 8000 NSC 30/20 Q1007 A2974 HR55 FU RWY NML =

SLTI

San Mat铆as

16-20S|58-24W

22:00

SLTI 182200Z 00000KT 8000 NSC 31/24 Q1012 A2988 HR64 FU RWY NML =

SLSI

San Ignacio de Velasco

16-23S|60-57W

23:00

SLSI 182300Z 00000KT 9999 NSC 29/24 Q1008 A2977 HR68 RWY NML=

SLVR

Internaci贸nal Viru Viru

17-38S|63-08W

07:00

SLVR 190700Z 03007KT 8000 FEW017 BKN200 24/21 Q1008 A2977 HR83 FU NOSIG=

SLET

El Trompillo

17-48S|63-10W

23:00

SLET 182300Z 32014KT 9000 FEW015 BKN200 30/20 Q1006 A2973 HR53 FU NOSIG=

SLJE

San Jos茅 de Chiquitos

17-49S|60-44W

22:00

SLJE 182200Z 36008KT 8000 FEW017 35/18 Q1008 A2977 HR37 FU RWY NML=

SLRB

Robor茅

18-19S|59-45W

23:00

SLRB 182300Z 36006KT 9999 NSC 31/23 Q1009 A2979 HR62 RWY NML=

SLVG

Valle Grande

18-28S|64-05W

21:00

SLVG 182100Z 35010KT 8000 NSC 21/12 Q1019 A3009 HR53 FU RWY NML =

SLPS

Puerto Su谩rez

18-58S|57-49W

23:00

SLPS 182300Z 09008KT 9000 SCT070 29/24 Q1006 A2971 HR72 FU=

SLCA

Camiri

20-00S|63-31W

23:00

SLCA 182300Z 36004KT 9999 SCT036 FEW040CB OVC080 31/16 Q1009 A2980 HR40 CB/LT N/NE/E RETS RWY NML=

Regional Beni

ESTACIÓN

AEROPUERTO

HORA UTC

DESCRIPCIÓN

SLGM

Guayaramer铆n

10-49S|65-20W

23:00

SLGM 182300Z 00000KT 9999 FEW017 28/23 Q1007 A2976 HR74=

SLRI

Riberalta

11-00S|66-04W

23:00

SLRI 182300Z 00000KT 9999 NSC 31/23 Q1008 A2977 HR62=

SLCO

Cobija

11-02S|68-47W

03:00

SLCO 190300Z 00000KT 9999 NSC 25/24 Q1009 A2981 982.0 HR91 FU=

SLJO

San Joaquin

13-03S|64-39W

22:00

SLJO 182200Z 00000KT 8000 FEW017 BKN200 33/21 Q1007 A2975 HR50 FU RWY NML=

SLMG

San Magdalena

13-15S|64-03W

23:00

SLMG 182300Z 00000KT 8000 NSC 30/23 Q1008 A2976 HR66 FU RWY NML=

SLRA

San Ram贸n

13-15S|64-36W

22:00

SLRA 182200Z 32006KT 8000 FEW020 BKN200 34/21 Q1007 A2976 HR46 FU RWY NML=

SLBU

Baures

13-39S|63-42W

22:00

SLBU 182200Z 00000KT 8000 FEW017 BKN200 31/24 Q1007 A2975 HR68 FU RWY NML=

SLSA

Santa Ana de Yacuma

13-45S|65-26W

23:00

SLSA 182300Z 34004KT 9999 FEW023 BKN200 30/22 Q1007 A2974 HR61 FU=

SLSR

Santa Rosa

14-04S|66-47W

22:00

SLSR 182200Z 35006KT 9999 FEW020 33/24 Q1004 A2965 HR57 RWY NML=

SLTR

Trinidad

14-49S|64-54W

23:00

SLTR 182300Z 00000KT 8000 NSC 31/23 Q1006 A2973 988.3 HR61 FU CI NOSIG=

SLSM

San Ignacio de Moxos

14-57S|65-38W

22:00

SLSM 182200Z 00000KT 9999 NSC 31/22 Q1004 A2967 HR58 CI RWY NML=